Time;durP1;ratioP1;P1;durP2;ratioP2;P2;SDS_P1;SDS_P2;PMS_P1;PMS_P2;Temp;Humidity;BMP_temperature;BMP_pressure;BME280_temperature;BME280_humidity;BME280_pressure;Samples;Min_cycle;Max_cycle;Signal;HPM_P1;HPM_P2
2021/06/29 00:00:41;;;;;;;0.20;0.10;;;;;;;18.72;84.06;100648.97;5041243;28;20053;-85
2021/06/29 00:03:16;;;;;;;0.10;0.10;;;;;;;18.74;83.58;100650.25;5038772;28;20048;-85
2021/06/29 00:05:46;;;;;;;0.10;0.10;;;;;;;18.76;83.63;100642.44;5042972;28;20052;-84
2021/06/29 00:08:21;;;;;;;0.10;0.10;;;;;;;18.76;83.68;100639.66;5048543;28;20069;-85
2021/06/29 00:10:49;;;;;;;0.10;0.10;;;;;;;18.81;83.08;100641.41;5035766;28;20048;-85
2021/06/29 00:13:20;;;;;;;0.10;0.10;;;;;;;18.77;84.83;100634.97;5032974;28;20053;-85
2021/06/29 00:15:53;;;;;;;0.10;0.10;;;;;;;18.77;84.48;100638.53;5040127;28;20061;-85
2021/06/29 00:18:22;;;;;;;0.10;0.10;;;;;;;18.79;83.84;100635.44;5030924;28;20065;-85
2021/06/29 00:20:50;;;;;;;0.10;0.10;;;;;;;18.79;84.29;100627.16;5029507;28;20041;-85
2021/06/29 00:23:25;;;;;;;0.10;0.10;;;;;;;18.78;83.43;100626.38;5025736;28;20057;-85
2021/06/29 00:25:58;;;;;;;0.10;0.10;;;;;;;18.82;83.61;100624.56;5030951;28;20056;-85
2021/06/29 00:28:31;;;;;;;0.10;0.10;;;;;;;18.82;83.93;100629.25;5037927;28;20544;-85
2021/06/29 00:30:59;;;;;;;0.10;0.10;;;;;;;18.76;83.40;100616.81;5035000;28;20045;-84
2021/06/29 00:33:35;;;;;;;0.10;0.10;;;;;;;18.82;84.34;100632.81;5038201;28;20056;-85
2021/06/29 00:36:10;;;;;;;0.10;0.10;;;;;;;18.79;83.24;100622.44;5042285;28;20057;-85
2021/06/29 00:38:48;;;;;;;0.10;0.10;;;;;;;18.89;82.69;100632.28;5044292;28;20056;-85
2021/06/29 00:41:22;;;;;;;0.10;0.10;;;;;;;18.90;82.98;100633.13;5037393;28;20060;-84
2021/06/29 00:43:56;;;;;;;0.10;0.10;;;;;;;18.90;82.39;100633.13;5035978;28;20049;-84
2021/06/29 00:46:29;;;;;;;0.10;0.10;;;;;;;18.91;83.24;100629.22;5037670;28;20481;-85
2021/06/29 00:49:03;;;;;;;0.20;0.20;;;;;;;18.90;81.71;100633.13;5038094;28;20390;-85
2021/06/29 00:51:31;;;;;;;0.10;0.10;;;;;;;18.90;81.73;100636.66;5030398;28;20058;-85
2021/06/29 00:54:06;;;;;;;0.10;0.10;;;;;;;18.87;84.35;100634.56;5052979;28;20068;-85
2021/06/29 00:56:40;;;;;;;0.10;0.10;;;;;;;18.87;83.07;100631.81;5038319;28;20048;-84
2021/06/29 00:59:13;;;;;;;0.10;0.10;;;;;;;18.85;83.68;100623.88;5042431;28;20780;-85
2021/06/29 01:01:48;;;;;;;0.10;0.10;;;;;;;18.85;83.54;100628.56;5040127;28;20420;-85
2021/06/29 01:04:26;;;;;;;0.10;0.10;;;;;;;18.81;82.82;100622.09;5049013;28;20076;-84
2021/06/29 01:07:01;;;;;;;0.10;0.10;;;;;;;18.81;83.33;100635.91;5050463;28;20049;-85
2021/06/29 01:09:38;;;;;;;0.10;0.10;;;;;;;18.78;83.47;100629.13;5043243;28;20045;-85
2021/06/29 01:12:11;;;;;;;0.33;0.10;;;;;;;18.74;84.53;100624.59;5032248;28;20045;-85
2021/06/29 01:14:46;;;;;;;0.10;0.10;;;;;;;18.72;83.55;100622.19;5032455;28;20389;-84
2021/06/29 01:17:19;;;;;;;0.10;0.10;;;;;;;18.80;83.83;100626.03;5036982;28;20816;-85
2021/06/29 01:19:50;;;;;;;0.15;0.15;;;;;;;18.77;83.91;100615.69;5040889;28;20060;-84
2021/06/29 01:22:27;;;;;;;0.20;0.20;;;;;;;18.76;83.11;100614.88;5048385;28;20061;-85
2021/06/29 01:25:00;;;;;;;0.10;0.10;;;;;;;18.77;83.72;100619.25;5039844;28;20064;-85
2021/06/29 01:27:43;;;;;;;0.10;0.10;;;;;;;18.79;82.34;100616.13;5047822;28;20061;-85
2021/06/29 01:33:11;;;;;;;0.10;0.10;;;;;;;18.79;83.51;100622.44;5033115;28;20505;-85
2021/06/29 01:35:44;;;;;;;0.20;0.20;;;;;;;18.79;83.07;100621.66;5028960;28;20068;-85
2021/06/29 01:38:18;;;;;;;0.10;0.10;;;;;;;18.82;82.11;100609.94;5039213;28;20065;-85
2021/06/29 01:40:52;;;;;;;0.10;0.10;;;;;;;18.77;82.76;100597.19;5030673;28;20065;-84
2021/06/29 01:43:28;;;;;;;0.10;0.10;;;;;;;18.85;82.73;100610.09;5046022;28;20056;-84
2021/06/29 01:46:01;;;;;;;0.88;0.17;;;;;;;18.82;82.54;100613.53;5042099;28;20069;-85
2021/06/29 01:48:34;;;;;;;0.20;0.20;;;;;;;18.83;82.92;100606.84;5053248;28;20052;-85
2021/06/29 01:51:03;;;;;;;0.15;0.15;;;;;;;18.79;83.62;100605.13;5063618;28;20045;-84
2021/06/29 01:53:32;;;;;;;0.10;0.10;;;;;;;18.79;83.17;100605.13;5041037;28;20596;-84
2021/06/29 01:56:02;;;;;;;0.10;0.10;;;;;;;18.75;83.34;100601.41;5052227;28;20067;-85
2021/06/29 01:58:35;;;;;;;0.20;0.20;;;;;;;18.72;84.23;100607.63;5036295;28;20049;-85
2021/06/29 02:01:09;;;;;;;0.10;0.10;;;;;;;18.73;83.15;100598.22;5039728;28;20056;-85
2021/06/29 02:03:42;;;;;;;0.10;0.10;;;;;;;18.62;83.92;100598.59;5033969;28;20056;-85
2021/06/29 02:06:18;;;;;;;0.10;0.10;;;;;;;18.66;83.70;100602.28;5034148;28;20044;-84
2021/06/29 02:08:58;;;;;;;0.10;0.10;;;;;;;18.70;83.18;100602.44;5044333;28;20421;-84
2021/06/29 02:11:33;;;;;;;0.10;0.10;;;;;;;18.61;84.03;100594.22;5037811;28;20041;-84
2021/06/29 02:14:07;;;;;;;0.10;0.10;;;;;;;18.62;84.25;100593.09;5048301;28;20088;-85
2021/06/29 02:16:41;;;;;;;0.10;0.10;;;;;;;18.57;83.37;100576.75;5034052;28;20056;-85
2021/06/29 02:19:10;;;;;;;0.10;0.10;;;;;;;18.64;83.29;100598.25;5048147;28;20069;-85
2021/06/29 02:21:38;;;;;;;0.10;0.10;;;;;;;18.62;84.47;100590.34;5032482;28;20049;-85
2021/06/29 02:24:08;;;;;;;0.10;0.10;;;;;;;18.64;83.61;100592.75;5041515;28;20053;-84
2021/06/29 02:26:41;;;;;;;0.10;0.10;;;;;;;18.50;85.33;100587.50;5039332;28;20412;-85
2021/06/29 02:29:14;;;;;;;0.10;0.10;;;;;;;18.53;84.15;100578.56;5036214;28;20161;-84
2021/06/29 02:31:48;;;;;;;0.10;0.10;;;;;;;18.49;84.34;100583.13;5042341;28;20040;-85
2021/06/29 02:34:21;;;;;;;0.10;0.10;;;;;;;18.59;82.40;100585.50;5045458;28;20512;-84
2021/06/29 02:36:54;;;;;;;0.10;0.10;;;;;;;18.56;83.96;100582.59;5044879;28;20052;-85
2021/06/29 02:39:30;;;;;;;0.10;0.10;;;;;;;18.55;83.62;100584.56;5036268;28;20045;-84
2021/06/29 02:42:04;;;;;;;0.10;0.10;;;;;;;18.41;83.78;100571.06;5035533;28;20821;-85
2021/06/29 02:44:34;;;;;;;0.10;0.10;;;;;;;18.40;84.65;100574.94;5036291;28;20722;-84
2021/06/29 02:47:27;;;;;;;0.10;0.10;;;;;;;18.37;84.39;100578.38;5035918;28;20057;-85
2021/06/29 02:50:01;;;;;;;0.10;0.10;;;;;;;18.41;83.64;100581.25;5046542;28;20064;-85
2021/06/29 02:52:35;;;;;;;0.10;0.10;;;;;;;18.35;84.10;100575.97;5037811;28;20560;-85
2021/06/29 02:55:13;;;;;;;0.17;0.17;;;;;;;18.29;83.46;100566.25;5037136;28;20045;-84
2021/06/29 02:57:42;;;;;;;0.10;0.10;;;;;;;18.26;85.01;100572.44;5040961;28;20056;-85
2021/06/29 03:00:13;;;;;;;0.10;0.10;;;;;;;18.24;84.27;100569.22;5035848;28;20057;-84
2021/06/29 03:02:47;;;;;;;0.10;0.10;;;;;;;18.26;84.39;100564.19;5031485;28;20045;-85
2021/06/29 03:05:21;;;;;;;0.10;0.10;;;;;;;18.23;84.63;100564.88;5040085;28;20048;-85
2021/06/29 03:07:58;;;;;;;0.20;0.20;;;;;;;18.19;84.36;100553.69;5042258;28;20187;-84
2021/06/29 03:10:34;;;;;;;0.20;0.20;;;;;;;18.18;85.00;100557.59;5039350;28;20051;-85
2021/06/29 03:13:11;;;;;;;0.20;0.20;;;;;;;18.11;84.73;100540.00;5029847;28;20048;-84
2021/06/29 03:15:45;;;;;;;0.10;0.10;;;;;;;18.22;85.36;100554.19;5038513;28;20099;-85
2021/06/29 03:18:13;;;;;;;0.30;0.15;;;;;;;18.23;84.73;100548.34;5034735;28;20057;-85
2021/06/29 03:20:42;;;;;;;0.10;0.10;;;;;;;18.20;84.29;100540.72;5036903;28;20503;-85
2021/06/29 03:23:10;;;;;;;0.10;0.10;;;;;;;18.27;85.10;100554.78;5032408;28;20046;-85
2021/06/29 03:25:45;;;;;;;0.10;0.10;;;;;;;18.30;83.79;100547.81;5030151;28;20048;-84
2021/06/29 03:28:18;;;;;;;0.10;0.10;;;;;;;18.29;84.50;100544.22;5032510;28;20052;-84
2021/06/29 03:30:47;;;;;;;0.10;0.10;;;;;;;18.30;84.00;100545.06;5042743;28;20057;-85
2021/06/29 03:33:15;;;;;;;0.10;0.10;;;;;;;18.35;84.01;100553.09;5044433;28;20052;-84
2021/06/29 03:35:43;;;;;;;0.10;0.10;;;;;;;18.36;86.27;100568.50;5036694;28;20746;-85
2021/06/29 03:38:16;;;;;;;0.10;0.10;;;;;;;18.24;86.60;100571.97;5049873;28;20053;-85
2021/06/29 03:40:53;;;;;;;0.20;0.20;;;;;;;18.28;86.88;100581.16;5036798;28;20041;-85
2021/06/29 03:43:21;;;;;;;0.10;0.10;;;;;;;18.34;86.58;100579.06;5057364;28;20049;-85
2021/06/29 03:45:55;;;;;;;0.10;0.10;;;;;;;18.33;87.05;100580.19;5030865;28;20050;-85
2021/06/29 03:48:23;;;;;;;0.10;0.10;;;;;;;18.30;86.55;100581.66;5036546;28;20053;-85
2021/06/29 03:50:57;;;;;;;0.10;0.10;;;;;;;18.39;86.34;100584.34;5027783;28;20054;-85
2021/06/29 03:53:32;;;;;;;0.20;0.20;;;;;;;18.45;86.14;100588.53;5026387;28;20615;-85
2021/06/29 03:56:23;;;;;;;0.10;0.10;;;;;;;18.49;85.83;100592.22;5037752;28;20056;-85
2021/06/29 03:58:59;;;;;;;0.10;0.10;;;;;;;18.55;85.61;100584.56;5043183;28;20063;-84
2021/06/29 04:01:34;;;;;;;0.13;0.10;;;;;;;18.55;85.96;100580.97;5042697;28;20485;-85
2021/06/29 04:04:08;;;;;;;0.10;0.10;;;;;;;18.61;84.59;100580.44;5034867;28;20049;-84
2021/06/29 04:06:38;;;;;;;0.10;0.10;;;;;;;18.56;85.72;100580.66;5045245;28;20058;-84
2021/06/29 04:09:12;;;;;;;0.20;0.20;;;;;;;18.55;85.68;100580.97;5043061;28;20060;-84
2021/06/29 04:11:43;;;;;;;0.10;0.10;;;;;;;18.56;85.98;100572.41;5033311;28;20057;-84
2021/06/29 04:14:17;;;;;;;0.10;0.10;;;;;;;18.55;84.88;100568.03;5030036;28;20049;-85
2021/06/29 04:16:50;;;;;;;0.10;0.10;;;;;;;18.56;85.92;100571.56;5035509;28;20049;-85
2021/06/29 04:19:25;;;;;;;0.10;0.10;;;;;;;18.59;85.10;100565.38;5051391;28;20053;-84
2021/06/29 04:21:58;;;;;;;0.10;0.10;;;;;;;18.68;85.14;100563.38;5046949;28;20060;-84
2021/06/29 04:24:26;;;;;;;0.10;0.10;;;;;;;18.68;84.67;100566.13;5030019;28;20080;-84
2021/06/29 04:27:01;;;;;;;0.10;0.10;;;;;;;18.70;85.50;100569.38;5039397;28;20045;-85
2021/06/29 04:29:34;;;;;;;0.10;0.10;;;;;;;18.64;84.99;100566.00;5039871;28;20045;-85
2021/06/29 04:32:08;;;;;;;0.13;0.13;;;;;;;18.62;86.02;100573.78;5044878;28;20052;-85
2021/06/29 04:34:44;;;;;;;0.10;0.10;;;;;;;18.62;85.75;100581.25;5033956;28;20061;-85
2021/06/29 04:37:12;;;;;;;0.10;0.10;;;;;;;18.65;84.74;100567.59;5047967;28;20049;-85
2021/06/29 04:39:45;;;;;;;0.10;0.10;;;;;;;18.77;85.13;100583.41;5036496;28;20060;-85
2021/06/29 04:42:23;;;;;;;0.10;0.10;;;;;;;18.76;84.78;100586.50;5043788;28;20048;-84
2021/06/29 04:44:56;;;;;;;0.10;0.10;;;;;;;18.69;84.24;100584.28;5041109;28;20068;-86
2021/06/29 04:47:36;;;;;;;0.10;0.10;;;;;;;18.76;84.56;100573.50;5040379;28;20069;-84
2021/06/29 04:50:06;;;;;;;0.10;0.10;;;;;;;18.80;84.48;100582.72;5054420;28;20055;-85
2021/06/29 04:52:42;;;;;;;0.13;0.13;;;;;;;18.81;83.60;100587.09;5046300;28;20057;-86
2021/06/29 04:55:21;;;;;;;0.20;0.20;;;;;;;18.80;84.32;100573.66;5044817;28;20048;-86
2021/06/29 04:57:59;;;;;;;0.10;0.10;;;;;;;18.81;84.06;100575.25;5044072;28;20057;-85
2021/06/29 05:00:38;;;;;;;0.10;0.10;;;;;;;18.79;84.00;100570.06;5039059;28;20072;-85
2021/06/29 05:03:12;;;;;;;0.10;0.10;;;;;;;18.90;83.30;100567.72;5037531;28;20056;-84
2021/06/29 05:06:06;;;;;;;0.10;0.10;;;;;;;19.03;83.04;100569.41;5040595;28;20065;-86
2021/06/29 05:08:41;;;;;;;0.10;0.10;;;;;;;18.96;83.67;100547.09;5043816;28;20049;-84
2021/06/29 05:11:13;;;;;;;0.20;0.20;;;;;;;19.12;82.32;100561.03;5052988;28;20057;-85
2021/06/29 05:13:49;;;;;;;0.15;0.15;;;;;;;19.14;83.01;100569.78;5039087;28;20049;-85
2021/06/29 05:16:25;;;;;;;0.20;0.20;;;;;;;19.10;83.86;100570.78;5036412;28;20889;-85
2021/06/29 05:18:58;;;;;;;0.10;0.10;;;;;;;19.30;83.44;100580.16;5038932;28;20045;-84
2021/06/29 05:21:31;;;;;;;0.10;0.10;;;;;;;19.44;82.17;100568.78;5034662;28;20049;-85
2021/06/29 05:24:06;;;;;;;0.20;0.20;;;;;;;19.50;80.92;100573.75;5034113;28;20049;-85
2021/06/29 05:26:36;;;;;;;0.10;0.10;;;;;;;19.43;83.03;100575.44;5035882;28;20053;-85
2021/06/29 05:29:16;;;;;;;0.10;0.10;;;;;;;19.42;81.45;100573.88;5037805;28;20103;-85
2021/06/29 05:31:45;;;;;;;0.20;0.20;;;;;;;19.41;81.76;100573.03;5035617;28;20048;-85
2021/06/29 05:34:19;;;;;;;0.20;0.20;;;;;;;19.65;80.65;100566.75;5038202;28;20579;-85
2021/06/29 05:36:52;;;;;;;0.10;0.10;;;;;;;19.95;79.94;100571.25;5035397;28;20041;-85
2021/06/29 05:39:29;;;;;;;0.10;0.10;;;;;;;19.94;77.92;100575.16;5034826;28;20056;-86
2021/06/29 05:42:04;;;;;;;0.10;0.10;;;;;;;19.91;80.15;100576.66;5036082;28;20056;-85
2021/06/29 05:44:44;;;;;;;0.20;0.20;;;;;;;20.07;79.08;100574.00;5033650;28;20496;-84
2021/06/29 05:47:20;;;;;;;0.10;0.10;;;;;;;20.11;77.20;100560.31;5035838;28;20060;-84
2021/06/29 05:49:55;;;;;;;0.20;0.10;;;;;;;20.27;77.16;100569.47;5035031;28;20880;-85
2021/06/29 05:52:30;;;;;;;0.20;0.20;;;;;;;20.24;77.73;100575.69;5035476;28;20052;-86
2021/06/29 05:55:07;;;;;;;0.10;0.10;;;;;;;20.28;77.37;100567.53;5034326;28;20049;-86
2021/06/29 05:57:40;;;;;;;0.10;0.10;;;;;;;20.33;79.72;100570.06;5034876;28;20056;-84
2021/06/29 06:00:19;;;;;;;0.10;0.10;;;;;;;20.36;79.99;100555.53;5033793;28;20064;-85
2021/06/29 06:02:53;;;;;;;0.10;0.10;;;;;;;20.50;78.88;100572.53;5038686;28;20053;-86
2021/06/29 06:05:26;;;;;;;0.10;0.10;;;;;;;20.61;77.56;100572.84;5034484;28;20776;-84
2021/06/29 06:08:02;;;;;;;0.20;0.10;;;;;;;20.57;75.20;100569.19;5032358;28;20059;-86
2021/06/29 06:10:37;;;;;;;0.20;0.20;;;;;;;20.83;76.12;100571.53;5033565;28;20049;-84
2021/06/29 06:13:10;;;;;;;0.10;0.10;;;;;;;21.13;77.38;100575.88;5032356;28;20115;-84
2021/06/29 06:15:46;;;;;;;0.10;0.10;;;;;;;21.13;74.53;100573.94;5033619;28;20115;-83
2021/06/29 06:18:20;;;;;;;0.10;0.10;;;;;;;21.17;76.85;100574.00;5036419;28;21358;-85
2021/06/29 06:20:51;;;;;;;0.10;0.10;;;;;;;21.20;73.68;100584.38;5036555;28;20059;-84
2021/06/29 06:23:28;;;;;;;0.10;0.10;;;;;;;21.07;73.48;100580.84;5031563;28;21100;-84
2021/06/29 06:26:01;;;;;;;0.10;0.10;;;;;;;20.97;74.10;100582.19;5032773;28;20060;-84
2021/06/29 06:28:35;;;;;;;0.10;0.10;;;;;;;20.87;76.96;100575.19;5032330;28;20057;-83
2021/06/29 06:31:09;;;;;;;0.30;0.20;;;;;;;20.94;73.59;100577.34;5032485;28;20060;-84
2021/06/29 06:33:38;;;;;;;0.10;0.10;;;;;;;20.93;74.65;100584.03;5036969;28;20053;-85
2021/06/29 06:36:07;;;;;;;0.10;0.10;;;;;;;20.88;74.05;100579.56;5051339;28;20065;-84
2021/06/29 06:38:35;;;;;;;0.10;0.10;;;;;;;20.87;76.35;100579.94;5033135;28;20056;-85
2021/06/29 06:41:13;;;;;;;0.20;0.20;;;;;;;20.84;75.58;100564.03;5033731;28;20059;-84
2021/06/29 06:44:09;;;;;;;0.10;0.10;;;;;;;20.99;75.33;100576.28;5034558;28;20064;-85
2021/06/29 06:46:49;;;;;;;0.10;0.10;;;;;;;21.06;74.29;100568.22;5034741;28;20049;-86
2021/06/29 06:49:27;;;;;;;0.10;0.10;;;;;;;21.11;75.52;100572.66;5036870;28;20045;-85
2021/06/29 06:52:01;;;;;;;0.10;0.10;;;;;;;21.05;75.08;100566.59;5036237;28;20497;-85
2021/06/29 06:54:55;;;;;;;0.10;0.10;;;;;;;21.23;75.52;100567.06;5036397;28;20068;-85
2021/06/29 06:57:23;;;;;;;0.20;0.20;;;;;;;21.22;73.17;100557.94;5033720;28;20079;-85
2021/06/29 06:59:56;;;;;;;0.10;0.10;;;;;;;21.51;72.39;100564.22;5038567;28;20571;-86
2021/06/29 07:02:31;;;;;;;0.10;0.10;;;;;;;21.75;74.00;100570.78;5037294;28;20068;-85
2021/06/29 07:05:05;;;;;;;0.10;0.10;;;;;;;21.79;69.99;100566.09;5033846;28;20056;-86
2021/06/29 07:07:39;;;;;;;0.10;0.10;;;;;;;21.61;70.46;100564.88;5033778;28;20060;-86
2021/06/29 07:10:21;;;;;;;0.10;0.10;;;;;;;21.70;69.71;100568.25;5035919;28;20052;-85
2021/06/29 07:12:55;;;;;;;0.10;0.10;;;;;;;21.69;71.10;100559.13;5036970;28;20052;-86
2021/06/29 07:15:29;;;;;;;0.10;0.10;;;;;;;21.76;70.63;100558.50;5035215;28;20061;-86
2021/06/29 07:18:04;;;;;;;0.10;0.10;;;;;;;21.54;69.89;100546.94;5032879;28;20060;-85
2021/06/29 07:20:45;;;;;;;0.10;0.10;;;;;;;21.65;68.88;100557.44;5037213;28;21311;-86
2021/06/29 07:23:20;;;;;;;0.10;0.10;;;;;;;21.81;70.15;100561.00;5037810;28;20068;-87
2021/06/29 07:25:55;;;;;;;0.00;0.00;;;;;;;21.86;71.79;100563.50;5034462;28;20056;-85
2021/06/29 07:28:30;;;;;;;0.20;0.20;;;;;;;21.88;70.65;100558.41;5039013;28;20080;-86
2021/06/29 07:31:16;;;;;;;0.10;0.10;;;;;;;21.90;69.81;100558.84;5036195;28;20595;-85
2021/06/29 07:33:52;;;;;;;0.10;0.10;;;;;;;22.23;71.35;100554.84;5035117;28;20049;-86
2021/06/29 07:36:22;;;;;;;0.10;0.10;;;;;;;22.28;69.00;100564.84;5034981;28;20048;-86
2021/06/29 07:39:19;;;;;;;0.10;0.10;;;;;;;22.65;71.68;100563.63;5037386;28;20054;-86
2021/06/29 07:41:48;;;;;;;0.10;0.10;;;;;;;22.86;72.06;100558.53;5034261;28;20052;-85
2021/06/29 07:44:21;;;;;;;0.10;0.10;;;;;;;22.85;69.58;100553.34;5036842;28;20052;-86
2021/06/29 07:46:59;;;;;;;0.10;0.10;;;;;;;22.72;69.54;100561.03;5033950;28;20064;-86
2021/06/29 07:50:07;;;;;;;0.10;0.10;;;;;;;23.17;68.54;100559.50;5036333;28;20448;-85
2021/06/29 07:52:42;;;;;;;0.28;0.10;;;;;;;23.24;68.83;100556.88;5041339;28;20044;-87
2021/06/29 07:55:15;;;;;;;0.10;0.10;;;;;;;23.19;69.54;100559.97;5041939;28;20052;-87
2021/06/29 07:57:50;;;;;;;0.10;0.10;;;;;;;23.17;70.26;100548.41;5039142;28;20500;-88
2021/06/29 08:00:25;;;;;;;0.10;0.10;;;;;;;23.06;67.67;100553.75;5039999;28;20057;-86
2021/06/29 08:02:56;;;;;;;0.10;0.10;;;;;;;23.08;66.29;100558.94;5038814;28;20061;-85
2021/06/29 08:05:26;;;;;;;0.10;0.10;;;;;;;23.31;65.65;100533.19;5043224;28;20060;-86
2021/06/29 08:07:57;;;;;;;0.10;0.10;;;;;;;23.90;68.04;100561.53;5038672;28;20049;-87
2021/06/29 08:10:30;;;;;;;0.10;0.10;;;;;;;24.13;66.93;100561.47;5037756;28;20060;-86
2021/06/29 08:13:10;;;;;;;0.10;0.10;;;;;;;24.15;63.92;100558.31;5040747;28;20056;-87
2021/06/29 08:15:48;;;;;;;0.10;0.10;;;;;;;24.07;65.30;100557.41;5041170;28;20531;-86
2021/06/29 08:18:29;;;;;;;0.10;0.10;;;;;;;23.74;64.13;100556.91;5037950;28;20048;-86
2021/06/29 08:21:08;;;;;;;0.10;0.10;;;;;;;23.78;67.13;100548.59;5037991;28;21866;-87
2021/06/29 08:23:54;;;;;;;0.10;0.10;;;;;;;23.74;65.02;100559.69;5035870;28;20616;-85
2021/06/29 08:26:23;;;;;;;0.10;0.10;;;;;;;23.67;64.99;100539.31;5039881;28;20049;-85
2021/06/29 08:28:57;;;;;;;0.10;0.10;;;;;;;23.59;64.91;100541.97;5040342;28;21085;-86
2021/06/29 08:31:30;;;;;;;0.10;0.10;;;;;;;23.92;67.76;100561.97;5037049;28;20051;-87
2021/06/29 08:34:08;;;;;;;0.10;0.10;;;;;;;23.91;64.44;100565.91;5037305;28;20729;-86
2021/06/29 08:36:44;;;;;;;0.10;0.10;;;;;;;24.08;65.08;100559.00;5038489;28;20049;-86
2021/06/29 08:39:15;;;;;;;0.10;0.10;;;;;;;24.31;68.30;100563.72;5038438;28;20604;-86
2021/06/29 08:42:14;;;;;;;0.10;0.10;;;;;;;24.18;64.48;100555.59;5036922;28;20057;-87
2021/06/29 08:44:50;;;;;;;0.10;0.10;;;;;;;24.24;66.00;100554.06;5041559;28;20067;-85
2021/06/29 08:47:20;;;;;;;0.10;0.10;;;;;;;24.33;63.53;100564.91;5038160;28;20053;-86
2021/06/29 08:49:54;;;;;;;0.10;0.10;;;;;;;24.15;61.20;100553.53;5039813;28;20072;-87
2021/06/29 08:52:29;;;;;;;0.10;0.10;;;;;;;24.01;62.63;100556.94;5037028;28;20053;-86
2021/06/29 08:55:05;;;;;;;0.10;0.10;;;;;;;23.88;60.65;100553.56;5043762;28;20288;-86
2021/06/29 08:57:39;;;;;;;0.20;0.13;;;;;;;23.99;62.16;100544.56;5041647;28;20049;-86
2021/06/29 09:00:12;;;;;;;0.10;0.10;;;;;;;24.21;64.10;100540.94;5042653;28;20053;-87
2021/06/29 09:03:13;;;;;;;0.10;0.10;;;;;;;24.43;62.45;100547.56;5041076;28;20055;-86
2021/06/29 09:05:52;;;;;;;0.10;0.10;;;;;;;24.31;63.09;100556.16;5039993;28;20494;-87
2021/06/29 09:08:29;;;;;;;0.10;0.10;;;;;;;24.23;60.79;100535.78;5036461;28;20060;-85
2021/06/29 09:11:09;;;;;;;;;;;;;;;24.20;60.68;100563.56;5039556;28;20049;-86
2021/06/29 09:13:44;;;;;;;0.10;0.10;;;;;;;24.15;62.17;100558.31;5038810;28;19925;-87
2021/06/29 09:16:23;;;;;;;0.13;0.13;;;;;;;24.60;60.83;100550.97;5039847;28;20057;-86
2021/06/29 09:18:51;;;;;;;0.20;0.20;;;;;;;24.74;60.35;100555.91;5038668;28;20041;-85
2021/06/29 09:21:28;;;;;;;0.10;0.10;;;;;;;24.92;58.89;100559.69;5040891;28;20053;-85
2021/06/29 09:23:58;;;;;;;0.13;0.13;;;;;;;25.11;61.70;100555.13;5037614;28;20052;-86
2021/06/29 09:26:39;;;;;;;0.10;0.10;;;;;;;25.02;58.36;100551.84;5035228;28;20067;-85
2021/06/29 09:29:16;;;;;;;0.20;0.20;;;;;;;24.94;58.24;100549.00;5034752;28;20083;-86
2021/06/29 09:31:49;;;;;;;0.10;0.10;;;;;;;25.16;63.80;100560.31;5034187;28;20052;-86
2021/06/29 09:34:29;;;;;;;0.10;0.10;;;;;;;24.65;60.74;100547.06;5033506;28;20061;-86
2021/06/29 09:37:26;;;;;;;0.10;0.10;;;;;;;24.69;59.63;100548.72;5034896;28;20052;-86
2021/06/29 09:40:21;;;;;;;0.10;0.10;;;;;;;24.64;63.55;100545.44;5036535;28;20059;-87
2021/06/29 09:43:10;;;;;;;0.10;0.10;;;;;;;24.63;64.75;100536.31;5038444;28;20052;-86
2021/06/29 09:45:44;;;;;;;0.10;0.10;;;;;;;24.77;61.23;100544.81;5037279;28;20087;-86
2021/06/29 09:48:28;;;;;;;0.10;0.10;;;;;;;24.52;60.55;100550.06;5038620;28;20556;-86
2021/06/29 09:51:07;;;;;;;0.20;0.13;;;;;;;24.30;64.03;100553.75;5036706;28;20437;-85
2021/06/29 09:53:47;;;;;;;0.10;0.10;;;;;;;23.95;65.11;100547.31;5036586;28;20060;-87
2021/06/29 09:56:23;;;;;;;0.10;0.10;;;;;;;23.86;66.34;100558.66;5035081;28;20057;-86
2021/06/29 09:58:53;;;;;;;0.10;0.10;;;;;;;23.58;65.06;100542.34;5036465;28;20123;-86
2021/06/29 10:01:30;;;;;;;0.10;0.10;;;;;;;23.70;67.77;100556.06;5032035;28;20063;-87
2021/06/29 10:04:06;;;;;;;0.10;0.10;;;;;;;23.48;67.84;100559.63;5041468;28;20061;-86
2021/06/29 10:06:42;;;;;;;0.10;0.10;;;;;;;23.37;69.00;100556.69;5034453;28;20033;-87
2021/06/29 10:09:20;;;;;;;0.10;0.10;;;;;;;23.15;68.53;100545.22;5029673;28;20061;-86
2021/06/29 10:12:00;;;;;;;0.20;0.20;;;;;;;23.09;68.99;100566.06;5038299;28;20044;-88
2021/06/29 10:14:38;;;;;;;0.15;0.15;;;;;;;22.88;69.72;100567.28;5036932;28;20963;-87
2021/06/29 10:18:04;;;;;;;0.10;0.10;;;;;;;22.53;70.98;100570.94;5037483;28;20068;-87
2021/06/29 10:23:57;;;;;;;0.10;0.10;;;;;;;22.15;72.69;100566.94;5035708;28;20072;-87
2021/06/29 10:26:29;;;;;;;0.10;0.10;;;;;;;22.31;71.20;100557.78;5036950;28;20053;-87
2021/06/29 10:29:05;;;;;;;0.10;0.10;;;;;;;22.11;69.93;100568.84;5038811;28;21284;-86
2021/06/29 10:31:43;;;;;;;0.10;0.10;;;;;;;21.84;70.33;100581.66;5038487;28;20057;-86
2021/06/29 10:34:20;;;;;;;0.10;0.10;;;;;;;21.34;70.36;100561.81;5039643;28;20057;-85
2021/06/29 10:36:55;;;;;;;0.13;0.13;;;;;;;21.06;74.06;100590.34;5039445;28;20060;-87
2021/06/29 10:39:31;;;;;;;0.10;0.10;;;;;;;20.98;75.02;100596.84;5036139;28;20049;-87
2021/06/29 10:42:08;;;;;;;0.20;0.20;;;;;;;20.66;76.78;100602.19;5037685;28;20686;-87
2021/06/29 10:44:47;;;;;;;0.10;0.10;;;;;;;20.53;77.52;100607.75;5034777;28;20060;-86
2021/06/29 10:51:36;;;;;;;0.88;0.30;;;;;;;19.96;83.25;100590.25;5034648;28;20062;-86
2021/06/29 10:54:39;;;;;;;0.10;0.10;;;;;;;19.66;84.55;100592.41;5042866;28;20053;-86
2021/06/29 10:57:16;;;;;;;0.20;0.20;;;;;;;19.48;86.83;100581.56;5044795;28;20065;-86
2021/06/29 10:59:52;;;;;;;0.10;0.10;;;;;;;19.40;86.13;100584.44;5042882;28;20041;-86
2021/06/29 11:02:38;;;;;;;0.20;0.20;;;;;;;19.35;85.47;100574.41;5035805;28;20510;-86
2021/06/29 11:05:11;;;;;;;0.10;0.10;;;;;;;19.25;85.28;100570.16;5031585;28;20523;-86
2021/06/29 11:07:50;;;;;;;0.20;0.20;;;;;;;19.20;87.10;100576.69;5039932;28;20048;-85
2021/06/29 11:10:55;;;;;;;0.20;0.20;;;;;;;19.30;87.42;100566.34;5036531;28;20509;-86
2021/06/29 11:13:48;;;;;;;0.10;0.10;;;;;;;19.25;85.44;100553.59;5029037;28;20834;-86
2021/06/29 11:16:54;;;;;;;0.10;0.10;;;;;;;19.16;87.23;100539.09;5030559;28;20049;-86
2021/06/29 11:20:04;;;;;;;0.65;0.20;;;;;;;19.36;83.59;100523.59;5034103;28;20695;-87
2021/06/29 11:22:49;;;;;;;0.20;0.20;;;;;;;19.51;85.33;100503.63;5034842;28;20707;-87
2021/06/29 11:25:45;;;;;;;0.10;0.10;;;;;;;19.48;86.35;100497.97;5031811;28;20072;-86
2021/06/29 11:28:49;;;;;;;0.10;0.10;;;;;;;19.59;86.51;100496.34;5041968;28;20045;-86
2021/06/29 11:31:30;;;;;;;0.15;0.15;;;;;;;19.66;87.11;100499.31;5038137;28;20048;-85
2021/06/29 11:34:07;;;;;;;0.10;0.10;;;;;;;19.64;85.61;100493.34;5028674;28;20056;-87
2021/06/29 11:36:51;;;;;;;0.10;0.10;;;;;;;19.90;85.43;100506.03;5031418;28;20056;-86
2021/06/29 11:39:46;;;;;;;0.20;0.20;;;;;;;19.92;83.61;100497.38;5032311;28;20053;-85
2021/06/29 11:42:23;;;;;;;0.10;0.10;;;;;;;20.07;88.38;100499.44;5034207;28;20064;-86
2021/06/29 11:45:06;;;;;;;0.10;0.10;;;;;;;20.39;85.10;100500.34;5032423;28;20057;-86
2021/06/29 11:47:41;;;;;;;0.10;0.10;;;;;;;20.59;84.12;100510.75;5033224;28;20060;-86
2021/06/29 11:50:25;;;;;;;0.20;0.20;;;;;;;20.68;86.07;100514.22;5036005;28;20052;-86
2021/06/29 11:53:01;;;;;;;0.10;0.10;;;;;;;20.83;86.01;100513.44;5033879;28;20610;-86
2021/06/29 11:55:30;;;;;;;0.10;0.10;;;;;;;20.84;85.64;100514.25;5030805;28;20060;-86
2021/06/29 11:57:58;;;;;;;0.17;0.17;;;;;;;21.18;85.45;100511.97;5034386;28;20045;-87
2021/06/29 12:00:35;;;;;;;0.10;0.10;;;;;;;21.24;83.29;100505.03;5033385;28;20057;-86
2021/06/29 12:03:07;;;;;;;0.10;0.10;;;;;;;21.41;81.87;100506.63;5036425;28;20053;-85
2021/06/29 12:05:43;;;;;;;0.10;0.10;;;;;;;21.31;83.84;100507.97;5031922;28;20057;-86
2021/06/29 12:08:18;;;;;;;0.10;0.10;;;;;;;21.52;78.38;100501.34;5029056;28;20060;-85
2021/06/29 12:10:55;;;;;;;0.20;0.20;;;;;;;21.38;79.98;100499.03;5030644;28;20049;-86
2021/06/29 12:13:24;;;;;;;0.20;0.20;;;;;;;21.30;82.56;100483.41;5031098;28;21032;-87
2021/06/29 12:16:00;;;;;;;0.10;0.10;;;;;;;21.54;80.77;100488.78;5030098;28;20788;-86